Time;durP1;ratioP1;P1;durP2;ratioP2;P2;SDS_P1;SDS_P2;PMS_P1;PMS_P2;Temp;Humidity;BMP_temperature;BMP_pressure;BME280_temperature;BME280_humidity;BME280_pressure;Samples;Min_cycle;Max_cycle;Signal;HPM_P1;HPM_P2
2022/12/22 03:26:15;;;;;;;3.65;1.83;;;9.60;28.60;;;;;;7365200;19;20029;-72
2022/12/22 03:28:45;;;;;;;4.57;1.13;;;9.60;28.60;;;;;;7360105;19;20298;-72
2022/12/22 03:31:15;;;;;;;2.95;1.20;;;9.70;29.40;;;;;;7358257;19;20635;-72
2022/12/22 03:33:47;;;;;;;2.72;1.02;;;9.70;29.30;;;;;;7365003;19;20021;-72
2022/12/22 03:36:17;;;;;;;2.45;1.15;;;9.70;29.30;;;;;;7363429;19;20006;-72
2022/12/22 03:38:47;;;;;;;3.13;1.20;;;9.70;29.20;;;;;;7366929;19;20498;-73
2022/12/22 03:46:41;;;;;;;1.45;1.00;;;9.60;29.40;;;;;;7365352;19;20017;-72
2022/12/22 03:49:13;;;;;;;1.40;1.10;;;9.60;29.40;;;;;;7365988;19;20021;-72
2022/12/22 03:51:46;;;;;;;2.55;1.10;;;9.60;29.40;;;;;;7366855;19;20045;-72
2022/12/22 03:54:18;;;;;;;5.25;1.55;;;9.60;29.30;;;;;;7365495;19;20018;-72
2022/12/22 03:56:48;;;;;;;4.68;1.25;;;9.60;29.40;;;;;;7366186;19;20082;-72
2022/12/22 03:59:19;;;;;;;2.92;1.20;;;9.50;29.30;;;;;;7387835;19;20022;-72
2022/12/22 04:01:51;;;;;;;2.00;0.90;;;9.50;29.90;;;;;;7366701;19;20497;-72
2022/12/22 04:04:26;;;;;;;2.70;1.17;;;9.50;30.00;;;;;;7368146;19;20429;-71
2022/12/22 04:06:56;;;;;;;2.65;1.00;;;9.60;29.40;;;;;;7366346;19;20350;-71
2022/12/22 04:09:26;;;;;;;1.88;1.20;;;9.80;28.10;;;;;;7365318;19;20010;-72
2022/12/22 04:14:38;;;;;;;3.08;0.85;;;9.70;28.10;;;;;;7387815;19;20749;-72
2022/12/22 04:17:09;;;;;;;4.68;1.00;;;9.80;28.10;;;;;;7366010;19;20011;-72
2022/12/22 04:19:41;;;;;;;3.05;1.10;;;9.90;26.20;;;;;;7364380;19;20018;-72
2022/12/22 04:22:11;;;;;;;2.30;0.80;;;9.90;26.10;;;;;;7367354;19;20684;-72
2022/12/22 04:24:41;;;;;;;1.23;0.80;;;9.90;26.70;;;;;;7364596;19;20006;-71
2022/12/22 04:27:10;;;;;;;3.53;1.00;;;10.00;25.60;;;;;;7366230;19;20017;-72
2022/12/22 04:29:40;;;;;;;4.43;0.75;;;10.10;23.70;;;;;;7386133;19;20021;-72
2022/12/22 04:32:10;;;;;;;4.32;1.00;;;10.20;22.20;;;;;;7366756;19;20446;-71
2022/12/22 04:34:42;;;;;;;3.78;1.40;;;10.20;22.20;;;;;;7364696;19;20017;-71
2022/12/22 04:37:12;;;;;;;4.40;0.98;;;10.20;24.50;;;;;;7365638;19;20010;-71
2022/12/22 04:39:46;;;;;;;3.17;1.20;;;10.20;24.30;;;;;;7366273;19;20011;-72
2022/12/22 04:42:16;;;;;;;1.27;0.88;;;10.10;25.40;;;;;;7363372;19;20018;-72
2022/12/22 04:44:46;;;;;;;2.53;1.33;;;10.00;26.80;;;;;;7364947;19;20054;-73
2022/12/22 04:47:16;;;;;;;3.42;1.02;;;10.00;28.80;;;;;;7387071;19;20295;-73
2022/12/22 04:49:48;;;;;;;2.50;0.90;;;9.90;30.60;;;;;;7364338;19;20438;-72
2022/12/22 04:52:18;;;;;;;1.80;0.88;;;9.90;31.20;;;;;;7366503;19;20020;-72
2022/12/22 04:54:48;;;;;;;1.63;0.95;;;9.90;32.20;;;;;;7364383;19;20389;-72
2022/12/22 04:57:17;;;;;;;2.97;1.10;;;9.80;33.30;;;;;;7365397;19;20002;-72
2022/12/22 04:59:47;;;;;;;3.28;1.20;;;9.60;35.10;;;;;;7363622;19;20014;-73
2022/12/22 05:02:17;;;;;;;5.60;1.35;;;9.60;36.20;;;;;;7385248;19;20055;-72
2022/12/22 05:04:49;;;;;;;1.55;1.00;;;9.50;37.60;;;;;;7365407;19;20010;-72
2022/12/22 05:07:19;;;;;;;3.72;1.45;;;9.50;39.10;;;;;;7365379;19;20006;-72
2022/12/22 05:09:49;;;;;;;4.82;0.98;;;9.40;39.80;;;;;;7364619;19;20007;-72
2022/12/22 05:15:01;;;;;;;2.17;0.88;;;9.40;41.50;;;;;;7364737;19;20010;-71
2022/12/22 05:17:31;;;;;;;2.72;0.90;;;9.40;41.80;;;;;;7385785;19;20021;-71
2022/12/22 05:20:04;;;;;;;2.63;1.10;;;9.40;41.60;;;;;;7363257;19;20551;-71
2022/12/22 05:22:34;;;;;;;2.42;0.90;;;9.50;41.80;;;;;;7364400;19;20013;-71
2022/12/22 05:25:03;;;;;;;5.18;0.90;;;9.50;40.50;;;;;;7363550;19;20484;-72
2022/12/22 05:27:36;;;;;;;2.80;0.73;;;9.60;39.40;;;;;;7364200;19;20018;-71
2022/12/22 05:30:07;;;;;;;2.85;1.10;;;9.70;37.50;;;;;;7362650;19;20015;-72
2022/12/22 05:32:37;;;;;;;3.42;0.88;;;9.80;35.00;;;;;;7386283;19;20006;-71
2022/12/22 05:35:11;;;;;;;3.08;1.10;;;9.80;34.20;;;;;;7364176;19;20049;-72
2022/12/22 05:37:40;;;;;;;3.88;1.00;;;9.80;33.90;;;;;;7363647;19;20014;-71
2022/12/22 05:40:12;;;;;;;4.55;1.33;;;9.80;33.60;;;;;;7363559;19;20472;-71
2022/12/22 05:42:42;;;;;;;2.13;0.90;;;9.90;33.60;;;;;;7364088;19;20006;-71
2022/12/22 05:45:15;;;;;;;3.95;0.95;;;9.90;32.50;;;;;;7361249;19;20360;-71
2022/12/22 05:47:46;;;;;;;2.63;1.10;;;10.00;30.70;;;;;;7363668;19;20047;-72
2022/12/22 05:50:21;;;;;;;2.53;0.90;;;10.00;29.30;;;;;;7383689;19;20015;-72
2022/12/22 05:52:51;;;;;;;2.15;1.02;;;10.10;28.40;;;;;;7364728;19;20011;-72
2022/12/22 05:55:21;;;;;;;4.68;1.15;;;10.00;27.80;;;;;;7369846;19;20014;-71
2022/12/22 05:57:51;;;;;;;1.92;1.30;;;10.10;28.10;;;;;;7371353;19;20466;-71
2022/12/22 06:00:22;;;;;;;5.70;0.95;;;10.10;26.60;;;;;;7367703;19;20006;-72
2022/12/22 06:02:52;;;;;;;3.72;1.00;;;10.10;26.30;;;;;;7371147;19;20018;-72
2022/12/22 06:05:25;;;;;;;4.55;0.77;;;10.00;26.10;;;;;;7392184;19;20098;-72
2022/12/22 06:07:54;;;;;;;2.55;0.90;;;9.90;28.20;;;;;;7370571;19;20021;-70
2022/12/22 06:10:25;;;;;;;2.88;1.20;;;9.90;27.60;;;;;;7368866;19;20077;-72
2022/12/22 06:12:55;;;;;;;3.05;0.93;;;9.80;28.50;;;;;;7368917;19;20025;-71
2022/12/22 06:15:24;;;;;;;3.22;1.25;;;9.60;29.40;;;;;;7369333;19;20021;-71
2022/12/22 06:17:54;;;;;;;3.95;1.30;;;9.60;29.40;;;;;;7369360;19;20035;-72
2022/12/22 06:20:27;;;;;;;5.30;1.10;;;9.60;30.40;;;;;;7388388;19;20011;-72
2022/12/22 06:22:56;;;;;;;4.32;1.60;;;9.60;30.00;;;;;;7369110;19;20082;-72
2022/12/22 06:25:26;;;;;;;3.83;1.15;;;9.50;29.30;;;;;;7366938;19;20010;-72
2022/12/22 06:27:56;;;;;;;1.85;1.13;;;9.50;29.40;;;;;;7368804;19;20034;-72
2022/12/22 06:30:26;;;;;;;4.82;1.20;;;9.50;31.00;;;;;;7368200;19;20044;-71
2022/12/22 06:33:02;;;;;;;4.60;1.60;;;9.50;30.50;;;;;;7369924;19;20478;-71
2022/12/22 06:35:35;;;;;;;3.83;1.42;;;9.50;31.20;;;;;;7388190;19;20022;-72
2022/12/22 06:38:06;;;;;;;6.55;1.70;;;9.70;29.70;;;;;;7369946;19;20667;-72
2022/12/22 06:40:36;;;;;;;7.53;2.00;;;9.70;28.90;;;;;;7368310;19;20018;-72
2022/12/22 06:43:09;;;;;;;4.60;1.40;;;9.80;27.40;;;;;;7370441;19;20010;-72
2022/12/22 06:45:41;;;;;;;3.35;1.50;;;9.90;25.50;;;;;;7366126;19;20036;-72
2022/12/22 06:48:13;;;;;;;3.60;1.45;;;10.00;23.70;;;;;;7369214;19;20030;-71
2022/12/22 06:50:45;;;;;;;4.50;1.30;;;10.20;22.10;;;;;;7385737;19;20553;-73
2022/12/22 06:53:15;;;;;;;4.10;1.60;;;10.10;21.20;;;;;;7391613;19;20089;-72
2022/12/22 06:55:45;;;;;;;8.35;1.50;;;10.10;20.80;;;;;;7365679;19;20021;-71
2022/12/22 06:58:15;;;;;;;5.95;1.55;;;10.20;20.50;;;;;;7369368;19;20007;-72
2022/12/22 07:00:47;;;;;;;3.92;1.20;;;10.10;20.70;;;;;;7368289;19;20471;-71
2022/12/22 07:03:17;;;;;;;8.30;2.00;;;10.10;19.90;;;;;;7369386;19;20819;-72
2022/12/22 07:05:50;;;;;;;4.70;1.33;;;10.20;18.60;;;;;;7366152;19;20025;-72
2022/12/22 07:08:20;;;;;;;7.57;1.77;;;10.20;18.00;;;;;;7388939;19;20526;-72
2022/12/22 07:11:01;;;;;;;4.50;1.30;;;10.20;18.10;;;;;;7368247;19;20010;-72
2022/12/22 07:13:33;;;;;;;6.07;1.70;;;10.30;17.30;;;;;;7366743;19;20057;-71
2022/12/22 07:16:04;;;;;;;3.92;1.67;;;10.40;15.90;;;;;;7366789;19;20017;-72
2022/12/22 07:18:36;;;;;;;6.68;1.67;;;10.40;15.30;;;;;;7367249;19;20011;-71
2022/12/22 07:21:10;;;;;;;9.82;2.05;;;10.40;15.30;;;;;;7369137;19;20022;-71
2022/12/22 07:23:41;;;;;;;10.73;1.83;;;10.50;15.40;;;;;;7389248;19;20070;-71
2022/12/22 07:26:12;;;;;;;6.20;1.55;;;10.50;15.40;;;;;;7368188;19;20011;-71
2022/12/22 07:28:43;;;;;;;7.68;1.70;;;10.40;16.00;;;;;;7365465;19;20018;-71
2022/12/22 07:31:13;;;;;;;4.60;1.30;;;10.30;15.80;;;;;;7368472;19;20027;-72
2022/12/22 07:33:43;;;;;;;4.57;1.52;;;10.20;16.40;;;;;;7364561;19;20021;-71
2022/12/22 07:36:18;;;;;;;10.13;1.40;;;10.20;16.80;;;;;;7364219;19;20010;-71
2022/12/22 07:38:50;;;;;;;10.93;1.50;;;10.10;16.90;;;;;;7366820;19;20109;-72
2022/12/22 07:44:04;;;;;;;6.40;1.57;;;10.30;15.20;;;;;;7366194;19;20010;-72
2022/12/22 07:46:37;;;;;;;9.80;1.95;;;10.30;14.80;;;;;;7365735;19;20015;-73
2022/12/22 07:51:54;;;;;;;7.22;1.50;;;10.40;12.70;;;;;;7365974;19;20018;-72
2022/12/22 07:54:24;;;;;;;6.57;2.28;;;10.30;12.70;;;;;;7364933;19;20010;-71
2022/12/22 07:56:54;;;;;;;6.20;1.70;;;10.30;12.40;;;;;;7364149;19;20014;-71
2022/12/22 07:59:24;;;;;;;7.80;1.50;;;10.40;11.70;;;;;;7386552;19;20451;-71
2022/12/22 08:01:54;;;;;;;3.83;1.48;;;10.30;12.40;;;;;;7366711;19;20014;-71
2022/12/22 08:04:24;;;;;;;6.82;1.88;;;10.20;12.30;;;;;;7365578;19;20002;-72
2022/12/22 08:06:56;;;;;;;6.85;1.75;;;10.30;11.10;;;;;;7364890;19;20014;-71
2022/12/22 08:09:26;;;;;;;5.32;1.40;;;10.30;10.50;;;;;;7365502;19;20032;-71
2022/12/22 08:11:56;;;;;;;7.38;1.88;;;10.30;10.30;;;;;;7366533;19;20014;-71
2022/12/22 08:14:28;;;;;;;6.03;1.33;;;10.30;11.40;;;;;;7388998;19;20494;-72
2022/12/22 08:16:58;;;;;;;9.63;1.45;;;10.30;10.90;;;;;;7363069;19;20018;-72
2022/12/22 08:19:28;;;;;;;6.53;1.30;;;10.40;10.00;;;;;;7364795;19;20007;-71
2022/12/22 08:22:01;;;;;;;6.50;1.15;;;10.40;9.90;;;;;;7364979;19;20017;-72
2022/12/22 08:24:31;;;;;;;6.60;1.55;;;10.50;9.80;;;;;;7366496;19;20010;-71
2022/12/22 08:27:05;;;;;;;7.95;3.53;;;10.60;8.20;;;;;;7365586;19;20018;-71
2022/12/22 08:29:38;;;;;;;4.57;1.20;;;10.70;8.30;;;;;;7385277;19;20014;-71
2022/12/22 08:32:08;;;;;;;7.15;1.60;;;10.60;9.00;;;;;;7366315;19;20471;-71
2022/12/22 08:34:38;;;;;;;6.07;1.35;;;10.50;10.50;;;;;;7362198;19;20034;-72
2022/12/22 08:37:16;;;;;;;4.32;1.10;;;10.50;10.40;;;;;;7363144;19;20017;-73
2022/12/22 08:39:50;;;;;;;4.40;1.20;;;10.40;11.70;;;;;;7364647;19;20082;-72
2022/12/22 08:42:21;;;;;;;7.72;1.45;;;10.40;12.80;;;;;;7366387;19;20085;-72
2022/12/22 08:44:52;;;;;;;8.00;1.40;;;10.50;11.30;;;;;;7365560;19;20014;-72
2022/12/22 08:47:23;;;;;;;6.30;1.58;;;10.40;11.70;;;;;;7386296;19;20766;-71
2022/12/22 08:49:53;;;;;;;7.07;1.70;;;10.40;12.80;;;;;;7363947;19;20007;-72
2022/12/22 08:52:25;;;;;;;8.18;1.40;;;10.40;12.70;;;;;;7362431;19;20082;-71
2022/12/22 08:54:55;;;;;;;8.15;1.40;;;10.30;13.10;;;;;;7365020;19;20498;-72
2022/12/22 08:57:25;;;;;;;6.75;2.05;;;10.40;12.30;;;;;;7363474;19;20017;-73
2022/12/22 08:59:55;;;;;;;7.32;1.63;;;10.40;11.70;;;;;;7363225;19;20015;-72
2022/12/22 09:02:25;;;;;;;3.67;1.88;;;10.40;11.20;;;;;;7387260;19;20014;-72
2022/12/22 09:04:55;;;;;;;7.47;1.55;;;10.40;11.20;;;;;;7355040;19;20013;-73
2022/12/22 09:07:28;;;;;;;5.72;1.73;;;10.50;10.90;;;;;;7363862;19;20022;-72
2022/12/22 09:09:58;;;;;;;8.57;1.38;;;10.50;10.50;;;;;;7363297;19;20824;-73
2022/12/22 09:12:28;;;;;;;4.38;2.03;;;10.50;10.40;;;;;;7362383;19;20398;-73
2022/12/22 09:14:57;;;;;;;6.35;1.55;;;10.60;10.20;;;;;;7362750;19;20441;-73
2022/12/22 09:17:27;;;;;;;5.70;1.20;;;10.70;8.80;;;;;;7384126;19;20057;-71
2022/12/22 09:19:57;;;;;;;6.68;1.50;;;10.70;8.30;;;;;;7362652;19;20382;-72
2022/12/22 09:22:30;;;;;;;7.93;1.65;;;10.70;7.70;;;;;;7364353;19;20010;-71
2022/12/22 09:24:59;;;;;;;8.82;1.70;;;10.70;7.60;;;;;;7364537;19;20014;-72
2022/12/22 09:27:31;;;;;;;10.40;1.17;;;10.90;5.90;;;;;;7362135;19;20350;-72
2022/12/22 09:30:01;;;;;;;7.75;1.88;;;10.90;8.40;;;;;;7361855;19;20028;-72
2022/12/22 09:32:31;;;;;;;5.30;1.60;;;10.70;10.40;;;;;;7385024;19;20011;-72
2022/12/22 09:35:00;;;;;;;5.28;1.95;;;10.60;11.40;;;;;;7360678;19;20823;-72
2022/12/22 09:37:33;;;;;;;7.60;1.90;;;10.60;11.50;;;;;;7362097;19;20025;-72
2022/12/22 09:40:02;;;;;;;7.72;2.00;;;10.60;11.70;;;;;;7364910;19;20010;-72
2022/12/22 09:42:36;;;;;;;12.02;2.10;;;10.70;11.50;;;;;;7363362;19;20101;-72
2022/12/22 09:45:07;;;;;;;5.72;1.40;;;10.60;11.90;;;;;;7362893;19;20485;-73
2022/12/22 09:47:45;;;;;;;9.73;1.85;;;10.60;11.90;;;;;;7390979;19;20028;-72
2022/12/22 09:50:22;;;;;;;3.47;1.38;;;10.70;11.90;;;;;;7384176;19;20015;-73
2022/12/22 09:52:56;;;;;;;5.97;1.27;;;10.60;12.00;;;;;;7379669;19;20013;-69
2022/12/22 09:55:40;;;;;;;4.65;1.52;;;10.60;13.20;;;;;;7364107;19;20837;-72
2022/12/22 09:58:24;;;;;;;7.97;1.48;;;10.60;13.10;;;;;;7364081;19;20011;-72
2022/12/22 10:01:02;;;;;;;8.07;1.90;;;10.50;14.60;;;;;;7361711;19;20073;-72
2022/12/22 10:03:44;;;;;;;5.40;1.40;;;10.50;15.40;;;;;;7363444;19;20002;-73
2022/12/22 10:06:21;;;;;;;7.13;2.28;;;10.50;15.50;;;;;;7361516;19;20003;-73
2022/12/22 10:08:56;;;;;;;7.30;1.95;;;10.40;16.00;;;;;;7359266;19;20027;-72
2022/12/22 10:11:26;;;;;;;4.05;1.35;;;10.40;16.90;;;;;;7381938;19;20029;-74
2022/12/22 10:13:56;;;;;;;5.68;1.63;;;10.40;17.80;;;;;;7360958;19;20014;-72
2022/12/22 10:16:28;;;;;;;6.13;1.38;;;10.40;18.30;;;;;;7361330;19;20014;-73
2022/12/22 10:19:07;;;;;;;6.07;1.40;;;10.40;17.60;;;;;;7358780;19;20112;-73
2022/12/22 10:21:41;;;;;;;11.15;1.50;;;10.30;19.30;;;;;;7360378;19;20015;-73
2022/12/22 10:24:31;;;;;;;5.63;1.33;;;10.30;20.10;;;;;;7360491;19;20017;-73
2022/12/22 10:27:03;;;;;;;;;;;10.30;21.90;;;;;;7360831;19;20032;-73
2022/12/22 10:29:35;;;;;;;8.48;1.50;;;10.30;22.30;;;;;;7380566;19;20343;-71
2022/12/22 10:32:12;;;;;;;3.85;1.33;;;10.20;23.40;;;;;;7361558;19;20368;-72
2022/12/22 10:35:01;;;;;;;6.47;1.77;;;10.10;24.60;;;;;;7359203;19;20379;-73
2022/12/22 10:37:37;;;;;;;4.68;1.17;;;10.10;24.90;;;;;;7359449;19;20011;-73
2022/12/22 10:40:21;;;;;;;7.82;1.63;;;10.20;25.00;;;;;;7361208;19;20024;-72
2022/12/22 10:42:55;;;;;;;4.43;1.30;;;10.20;25.20;;;;;;7368819;19;20466;-72
2022/12/22 10:45:28;;;;;;;7.07;1.50;;;10.20;25.60;;;;;;7366823;19;20010;-74
2022/12/22 10:47:59;;;;;;;4.88;1.25;;;10.20;26.20;;;;;;7367266;19;20078;-73
2022/12/22 10:50:29;;;;;;;4.95;1.80;;;10.20;26.70;;;;;;7385593;19;20029;-71
2022/12/22 10:53:02;;;;;;;4.75;1.00;;;10.20;25.50;;;;;;7365807;19;20038;-72
2022/12/22 10:55:34;;;;;;;8.02;1.33;;;10.20;25.80;;;;;;7366901;19;20127;-72
2022/12/22 10:58:20;;;;;;;4.38;1.40;;;10.20;26.40;;;;;;7366155;19;20023;-72
2022/12/22 11:01:03;;;;;;;4.40;1.40;;;10.20;26.00;;;;;;7367545;19;20017;-71
2022/12/22 11:03:33;;;;;;;4.80;1.38;;;10.30;26.30;;;;;;7366580;19;20042;-72
2022/12/22 11:06:03;;;;;;;4.80;1.65;;;10.30;26.20;;;;;;7367580;19;20476;-71
2022/12/22 11:08:36;;;;;;;5.47;1.23;;;10.30;25.80;;;;;;7388146;19;20374;-72
2022/12/22 11:11:15;;;;;;;4.00;1.35;;;10.30;26.10;;;;;;7366073;19;20073;-72
2022/12/22 11:13:54;;;;;;;9.50;1.33;;;10.30;25.30;;;;;;7366070;19;20075;-72
2022/12/22 11:16:31;;;;;;;7.45;2.05;;;10.40;24.80;;;;;;7359155;19;20014;-71
2022/12/22 11:19:12;;;;;;;4.97;1.30;;;10.50;24.40;;;;;;7351665;19;20384;-72
2022/12/22 11:21:46;;;;;;;4.20;1.40;;;10.60;22.50;;;;;;7362989;19;20466;-72
2022/12/22 11:24:23;;;;;;;;;;;10.60;21.20;;;;;;7360931;19;20043;-72
2022/12/22 11:27:05;;;;;;;6.68;1.67;;;10.70;21.60;;;;;;7358746;19;19919;-72
2022/12/22 11:30:13;;;;;;;6.43;1.20;;;10.80;21.20;;;;;;7382455;19;20096;-71
2022/12/22 11:33:09;;;;;;;3.08;1.10;;;10.90;19.90;;;;;;7363131;19;20017;-72
2022/12/22 11:35:52;;;;;;;3.33;0.80;;;11.00;18.50;;;;;;7361035;19;20466;-71
2022/12/22 11:38:33;;;;;;;1.98;0.60;;;11.10;17.10;;;;;;7354518;19;20011;-71
2022/12/22 11:41:12;;;;;;;1.35;0.60;;;11.20;14.80;;;;;;7361157;19;20015;-71
2022/12/22 11:44:00;;;;;;;1.70;0.60;;;11.30;12.80;;;;;;7360045;19;20086;-71
2022/12/22 11:46:36;;;;;;;2.28;0.68;;;11.40;12.00;;;;;;7360339;19;20014;-71
2022/12/22 11:49:37;;;;;;;2.08;0.55;;;11.50;8.80;;;;;;7353152;19;20086;-72
2022/12/22 11:52:19;;;;;;;2.20;0.77;;;11.50;8.80;;;;;;7360294;19;20011;-72
2022/12/22 11:55:23;;;;;;;1.25;0.52;;;11.60;8.90;;;;;;7361311;19;20551;-72
2022/12/22 11:58:06;;;;;;;1.80;0.45;;;11.60;8.90;;;;;;7356403;19;20082;-71
2022/12/22 12:00:44;;;;;;;3.45;0.75;;;11.60;7.90;;;;;;7362191;19;20483;-71
2022/12/22 12:04:01;;;;;;;3.08;1.17;;;11.60;7.30;;;;;;7361949;19;20086;-72
2022/12/22 12:06:55;;;;;;;3.33;0.77;;;11.60;8.40;;;;;;7363130;19;20010;-72
2022/12/22 12:09:43;;;;;;;2.42;0.70;;;11.60;7.80;;;;;;7352887;19;20865;-72
2022/12/22 12:12:19;;;;;;;2.08;0.80;;;11.60;8.20;;;;;;7361242;19;20017;-71
2022/12/22 12:14:58;;;;;;;1.90;0.82;;;11.60;8.30;;;;;;7383119;19;20475;-73
2022/12/22 12:17:45;;;;;;;2.78;0.70;;;11.70;8.40;;;;;;7375457;19;20018;-71
2022/12/22 12:20:46;;;;;;;2.13;0.60;;;11.70;8.80;;;;;;7358227;19;20461;-72
2022/12/22 12:23:29;;;;;;;1.73;0.70;;;11.70;7.80;;;;;;7361818;19;20074;-71
2022/12/22 12:26:05;;;;;;;2.80;0.75;;;11.80;7.30;;;;;;7361406;19;20434;-72
2022/12/22 12:28:45;;;;;;;1.85;0.77;;;11.80;5.30;;;;;;7352444;19;20014;-71
2022/12/22 12:31:18;;;;;;;3.47;0.70;;;11.90;3.80;;;;;;7361375;19;20017;-73
2022/12/22 12:34:02;;;;;;;1.13;0.40;;;12.00;4.40;;;;;;7361128;19;20647;-71
2022/12/22 12:36:41;;;;;;;2.97;0.60;;;12.00;3.50;;;;;;7361723;19;20505;-71
2022/12/22 12:39:19;;;;;;;3.08;0.63;;;12.10;3.40;;;;;;7353109;19;20018;-70
2022/12/22 12:42:00;;;;;;;4.55;0.90;;;12.20;3.10;;;;;;7379225;19;20048;-72
2022/12/22 12:44:35;;;;;;;1.75;0.68;;;12.10;3.30;;;;;;7385009;19;20035;-70
2022/12/22 12:47:27;;;;;;;2.83;1.02;;;12.20;3.90;;;;;;7361691;19;20014;-71
2022/12/22 12:50:07;;;;;;;2.67;0.80;;;12.10;1.30;;;;;;7359769;19;20034;-71
2022/12/22 12:53:05;;;;;;;1.85;0.60;;;12.20;2.30;;;;;;7359792;19;20613;-72
2022/12/22 12:55:53;;;;;;;3.78;0.85;;;12.30;1.00;;;;;;7360843;19;20002;-72
2022/12/22 12:58:53;;;;;;;3.47;0.80;;;12.10;1.00;;;;;;7363146;19;20114;-70
2022/12/22 13:01:56;;;;;;;2.80;0.77;;;12.10;1.20;;;;;;7367511;19;20428;-72
2022/12/22 13:05:14;;;;;;;2.20;0.68;;;12.00;1.30;;;;;;7358502;19;20017;-71
2022/12/22 13:08:15;;;;;;;5.47;0.98;;;12.10;1.70;;;;;;7353106;19;20020;-70
2022/12/22 13:11:24;;;;;;;2.10;0.70;;;12.00;1.70;;;;;;7359105;19;20010;-71
2022/12/22 13:14:49;;;;;;;3.20;0.80;;;12.00;1.60;;;;;;7358680;19;20018;-72
2022/12/22 13:17:41;;;;;;;2.88;0.80;;;12.00;1.40;;;;;;7351485;19;20011;-71
2022/12/22 13:20:17;;;;;;;2.00;0.70;;;12.00;1.00;;;;;;7353454;19;20015;-71
2022/12/22 13:22:47;;;;;;;1.83;0.65;;;12.00;1.40;;;;;;7359098;19;20098;-72
2022/12/22 13:25:18;;;;;;;2.88;0.70;;;12.00;1.00;;;;;;7356809;19;20650;-72
2022/12/22 13:27:49;;;;;;;2.22;0.65;;;12.10;1.00;;;;;;7353975;19;20018;-71
2022/12/22 13:30:21;;;;;;;2.85;0.68;;;12.10;1.00;;;;;;7357800;19;20105;-71
2022/12/22 13:32:54;;;;;;;2.47;1.00;;;12.00;1.00;;;;;;7380016;19;20074;-71
2022/12/22 13:35:29;;;;;;;2.08;0.75;;;12.00;1.00;;;;;;7359174;19;20037;-70
2022/12/22 13:38:02;;;;;;;5.97;0.82;;;11.90;1.00;;;;;;7352183;19;20022;-71
2022/12/22 13:40:33;;;;;;;3.58;0.68;;;11.90;1.10;;;;;;7357086;19;20011;-71
2022/12/22 13:43:06;;;;;;;3.45;0.90;;;11.90;1.60;;;;;;7358280;19;20053;-72
2022/12/22 13:45:41;;;;;;;2.63;0.77;;;11.90;2.20;;;;;;7359698;19;20014;-70
2022/12/22 13:48:17;;;;;;;5.93;3.08;;;11.80;1.50;;;;;;7352759;19;20014;-71
2022/12/22 13:50:50;;;;;;;4.32;0.90;;;11.90;2.20;;;;;;7381410;19;20011;-71
2022/12/22 13:53:27;;;;;;;1.60;1.00;;;11.80;2.50;;;;;;7357580;19;20022;-70
2022/12/22 13:56:19;;;;;;;3.25;0.95;;;11.70;3.30;;;;;;7358339;19;20026;-72
2022/12/22 13:58:53;;;;;;;2.15;0.80;;;11.70;4.20;;;;;;7349920;19;20010;-71
2022/12/22 14:04:02;;;;;;;4.10;0.90;;;11.70;4.70;;;;;;7355445;19;20023;-71
2022/12/22 14:06:35;;;;;;;3.67;0.90;;;11.70;5.20;;;;;;7345148;19;20034;-72
2022/12/22 14:09:13;;;;;;;2.65;1.00;;;11.70;6.10;;;;;;7348449;19;20029;-70
2022/12/22 14:11:44;;;;;;;4.30;1.00;;;11.60;6.90;;;;;;7379883;19;20015;-71
2022/12/22 14:14:25;;;;;;;2.88;1.38;;;11.60;6.80;;;;;;7360607;19;20042;-71
2022/12/22 14:16:57;;;;;;;5.63;1.50;;;11.60;6.50;;;;;;7365476;19;20010;-70
2022/12/22 14:19:34;;;;;;;4.55;1.05;;;11.60;5.90;;;;;;7354660;19;20014;-72
2022/12/22 14:22:08;;;;;;;4.00;1.50;;;11.60;6.20;;;;;;7365413;19;20014;-71
2022/12/22 14:24:44;;;;;;;6.88;1.35;;;11.60;5.20;;;;;;7364528;19;20018;-71
2022/12/22 14:27:22;;;;;;;5.28;3.05;;;11.60;4.80;;;;;;7363537;19;20028;-71
2022/12/22 14:29:52;;;;;;;3.45;1.40;;;11.60;5.20;;;;;;7381913;19;20018;-71
2022/12/22 14:32:39;;;;;;;6.70;1.20;;;11.60;4.20;;;;;;7364817;19;20339;-71
2022/12/22 14:35:33;;;;;;;2.95;0.95;;;11.60;3.90;;;;;;7364108;19;20017;-70
2022/12/22 14:38:19;;;;;;;7.03;1.75;;;11.60;3.40;;;;;;7355565;19;20034;-72
2022/12/22 14:40:49;;;;;;;4.20;1.25;;;11.60;3.70;;;;;;7362544;19;20056;-72
2022/12/22 14:43:29;;;;;;;7.72;1.40;;;11.60;3.50;;;;;;7363885;19;20129;-72
2022/12/22 14:46:05;;;;;;;13.30;1.80;;;11.60;3.30;;;;;;7363207;19;20518;-71
2022/12/22 14:48:39;;;;;;;3.30;1.30;;;11.60;2.40;;;;;;7355669;19;20851;-71
2022/12/22 14:51:12;;;;;;;7.18;1.60;;;11.60;2.00;;;;;;7363960;19;20018;-71
2022/12/22 14:53:47;;;;;;;5.68;1.52;;;11.60;1.40;;;;;;7384763;19;20522;-71
2022/12/22 14:56:19;;;;;;;8.82;2.03;;;11.60;2.00;;;;;;7362805;19;20021;-71
2022/12/22 14:58:50;;;;;;;9.88;2.20;;;11.50;1.40;;;;;;7353225;19;20421;-71
2022/12/22 15:01:23;;;;;;;9.02;2.22;;;11.50;2.10;;;;;;7361963;19;20378;-71
2022/12/22 15:04:03;;;;;;;9.27;1.60;;;11.50;1.90;;;;;;7364640;19;20014;-71
2022/12/22 15:06:42;;;;;;;6.13;1.70;;;11.50;1.40;;;;;;7364086;19;20533;-72
2022/12/22 15:09:30;;;;;;;9.85;2.83;;;11.40;1.80;;;;;;7354499;19;20038;-71
2022/12/22 15:12:20;;;;;;;11.02;2.10;;;11.40;2.10;;;;;;7362660;19;20023;-71
2022/12/22 15:14:50;;;;;;;14.18;2.70;;;11.40;2.50;;;;;;7384953;19;20503;-72
2022/12/22 15:17:24;;;;;;;7.28;1.65;;;11.30;2.30;;;;;;7359826;19;20015;-71
2022/12/22 15:19:59;;;;;;;10.10;2.08;;;11.30;2.70;;;;;;7360070;19;20010;-72
2022/12/22 15:22:32;;;;;;;12.10;2.42;;;11.30;2.60;;;;;;7362970;19;20011;-71
2022/12/22 15:25:02;;;;;;;7.03;2.33;;;11.30;2.70;;;;;;7363307;19;20097;-72
2022/12/22 15:27:32;;;;;;;5.53;2.22;;;11.30;2.60;;;;;;7354424;19;20021;-71
2022/12/22 15:30:02;;;;;;;8.65;2.42;;;11.30;3.70;;;;;;7360574;19;20031;-71
2022/12/22 15:32:32;;;;;;;8.60;2.53;;;11.20;3.30;;;;;;7385005;19;20118;-71
2022/12/22 15:35:16;;;;;;;8.45;2.88;;;11.20;3.10;;;;;;7362803;19;20443;-71
2022/12/22 15:37:49;;;;;;;6.93;2.33;;;11.20;3.20;;;;;;7355219;19;20726;-72
2022/12/22 15:40:21;;;;;;;12.23;4.35;;;11.20;2.50;;;;;;7359641;19;20018;-71
2022/12/22 15:42:52;;;;;;;12.43;3.35;;;11.20;2.90;;;;;;7363547;19;20034;-71
2022/12/22 15:45:23;;;;;;;9.68;2.80;;;11.20;2.80;;;;;;7366074;19;20018;-71
2022/12/22 15:47:56;;;;;;;7.65;2.08;;;11.10;2.60;;;;;;7377517;19;20029;-71
2022/12/22 15:50:29;;;;;;;9.23;2.28;;;11.10;2.90;;;;;;7360360;19;20011;-71
2022/12/22 15:53:15;;;;;;;12.20;3.15;;;11.00;3.70;;;;;;7363232;19;20015;-72
2022/12/22 15:55:47;;;;;;;12.00;2.90;;;10.90;3.70;;;;;;7362307;19;20126;-69
2022/12/22 15:58:20;;;;;;;7.63;2.05;;;10.90;3.90;;;;;;7352004;19;20452;-71
2022/12/22 16:00:50;;;;;;;13.18;2.60;;;10.80;4.50;;;;;;7361527;19;20690;-72
2022/12/22 16:03:21;;;;;;;9.85;2.65;;;10.80;4.00;;;;;;7361263;19;20531;-70
2022/12/22 16:05:51;;;;;;;12.98;3.45;;;10.80;4.60;;;;;;7385554;19;20048;-71
2022/12/22 16:08:29;;;;;;;9.25;2.67;;;10.90;4.30;;;;;;7353478;19;20010;-70
2022/12/22 16:11:00;;;;;;;11.25;3.03;;;10.90;4.70;;;;;;7359311;19;20021;-71
2022/12/22 16:13:30;;;;;;;8.45;2.70;;;10.80;5.00;;;;;;7359149;19;20428;-70
2022/12/22 16:16:00;;;;;;;9.95;2.63;;;10.70;6.00;;;;;;7359623;19;20019;-73
2022/12/22 16:18:30;;;;;;;8.95;2.95;;;10.70;6.50;;;;;;7351216;19;20014;-73
2022/12/22 16:21:07;;;;;;;10.18;2.85;;;10.60;7.60;;;;;;7359864;19;20042;-73
2022/12/22 16:23:39;;;;;;;7.53;2.85;;;10.60;7.20;;;;;;7382999;19;20022;-72
2022/12/22 16:26:09;;;;;;;5.95;1.80;;;10.60;7.70;;;;;;7361383;19;20343;-72
2022/12/22 16:28:39;;;;;;;8.68;2.08;;;10.60;8.20;;;;;;7352959;19;20021;-73
2022/12/22 16:31:17;;;;;;;9.80;2.22;;;10.60;8.20;;;;;;7361931;19;20006;-74
2022/12/22 16:33:47;;;;;;;7.57;2.53;;;10.50;8.10;;;;;;7362449;19;20018;-73
2022/12/22 16:36:17;;;;;;;8.25;1.83;;;10.50;8.20;;;;;;7388005;19;20089;-72
2022/12/22 16:38:50;;;;;;;9.73;2.20;;;10.50;7.80;;;;;;7373014;19;20035;-72
2022/12/22 16:41:23;;;;;;;7.53;2.03;;;10.50;8.00;;;;;;7360347;19;20098;-73
2022/12/22 16:43:54;;;;;;;9.20;2.10;;;10.40;8.00;;;;;;7360120;19;20002;-72
2022/12/22 16:46:39;;;;;;;9.43;2.67;;;10.30;8.00;;;;;;7359921;19;20139;-73
2022/12/22 16:49:10;;;;;;;11.43;2.45;;;10.20;7.90;;;;;;7350546;19;20506;-73
2022/12/22 16:51:48;;;;;;;10.60;2.53;;;10.10;8.20;;;;;;7359973;19;20018;-72
2022/12/22 16:54:20;;;;;;;9.57;2.10;;;10.10;9.50;;;;;;7360827;19;20004;-74
2022/12/22 16:56:51;;;;;;;12.18;2.25;;;10.00;10.20;;;;;;7383169;19;20010;-74
2022/12/22 16:59:21;;;;;;;7.25;2.47;;;10.00;10.10;;;;;;7351588;19;20018;-72
2022/12/22 17:01:53;;;;;;;11.05;2.45;;;9.90;11.30;;;;;;7356171;19;20018;-72
2022/12/22 17:04:26;;;;;;;8.10;2.60;;;9.90;11.30;;;;;;7361332;19;20018;-74
2022/12/22 17:07:00;;;;;;;11.05;2.50;;;9.90;10.90;;;;;;7358339;19;20473;-73
2022/12/22 17:09:44;;;;;;;9.88;2.88;;;9.90;10.80;;;;;;7351714;19;20010;-72
2022/12/22 17:12:19;;;;;;;11.38;2.63;;;9.90;10.90;;;;;;7359816;19;20367;-73
2022/12/22 17:14:50;;;;;;;12.20;3.13;;;9.90;10.90;;;;;;7379853;19;20021;-72
2022/12/22 17:17:23;;;;;;;12.73;3.28;;;9.90;10.80;;;;;;7353130;19;20034;-72